Time;durP1;ratioP1;P1;durP2;ratioP2;P2;SDS_P1;SDS_P2;PMS_P1;PMS_P2;Temp;Humidity;BMP_temperature;BMP_pressure;BME280_temperature;BME280_humidity;BME280_pressure;Samples;Min_cycle;Max_cycle;Signal;HPM_P1;HPM_P2
2022/06/13 00:01:14;;;;;;;0.72;0.72;;;;;;;;;;1862968;77;26272;-57
2022/06/13 00:03:41;;;;;;;1.00;0.80;;;;;;;;;;1858003;77;26287;-56
2022/06/13 00:06:08;;;;;;;0.62;0.62;;;;;;;;;;1858167;77;26641;-55
2022/06/13 00:08:36;;;;;;;0.65;0.65;;;;;;;;;;1862644;75;26771;-58
2022/06/13 00:11:05;;;;;;;0.65;0.65;;;;;;;;;;1849476;75;26241;-57
2022/06/13 00:13:32;;;;;;;0.80;0.80;;;;;;;;;;1856144;77;26241;-57
2022/06/13 00:15:59;;;;;;;0.70;0.70;;;;;;;;;;1863822;77;26256;-56
2022/06/13 00:18:27;;;;;;;2.45;0.60;;;;;;;;;;1862991;77;26326;-55
2022/06/13 00:20:54;;;;;;;0.72;0.70;;;;;;;;;;1844299;77;26200;-55
2022/06/13 00:23:22;;;;;;;1.37;0.70;;;;;;;;;;1849327;75;26752;-57
2022/06/13 00:25:49;;;;;;;0.60;0.60;;;;;;;;;;1844940;77;26200;-55
2022/06/13 00:28:17;;;;;;;0.60;0.60;;;;;;;;;;1857640;75;26237;-57
2022/06/13 00:30:44;;;;;;;1.85;0.70;;;;;;;;;;1863713;76;26707;-57
2022/06/13 00:33:11;;;;;;;0.60;0.60;;;;;;;;;;1860016;77;26711;-56
2022/06/13 00:35:38;;;;;;;1.70;0.80;;;;;;;;;;1863524;77;26703;-53
2022/06/13 00:38:06;;;;;;;0.70;0.70;;;;;;;;;;1863192;76;26727;-56
2022/06/13 00:40:34;;;;;;;0.70;0.70;;;;;;;;;;1846071;77;26337;-56
2022/06/13 00:43:01;;;;;;;0.75;0.75;;;;;;;;;;1863777;77;26634;-57
2022/06/13 00:45:32;;;;;;;0.80;0.80;;;;;;;;;;1864848;77;26229;-56
2022/06/13 00:48:00;;;;;;;0.70;0.70;;;;;;;;;;1860784;77;26252;-57
2022/06/13 00:50:29;;;;;;;1.50;0.80;;;;;;;;;;1864892;77;26247;-54
2022/06/13 00:53:03;;;;;;;1.10;0.70;;;;;;;;;;1858951;77;26307;-52
2022/06/13 00:55:35;;;;;;;0.90;0.90;;;;;;;;;;1869440;74;26428;-54
2022/06/13 00:58:03;;;;;;;0.75;0.75;;;;;;;;;;1884985;75;26270;-56
2022/06/13 01:00:31;;;;;;;0.72;0.72;;;;;;;;;;1941333;74;26247;-54
2022/06/13 01:03:00;;;;;;;0.70;0.70;;;;;;;;;;1936129;74;26196;-51
2022/06/13 01:05:28;;;;;;;0.78;0.78;;;;;;;;;;1912337;74;26277;-55
2022/06/13 01:07:56;;;;;;;0.70;0.70;;;;;;;;;;1934604;74;26763;-57
2022/06/13 01:13:10;;;;;;;0.70;0.70;;;;;;;;;;1898458;74;26798;-56
2022/06/13 01:15:58;;;;;;;0.68;0.68;;;;;;;;;;1868349;76;26214;-51
2022/06/13 01:18:43;;;;;;;0.70;0.70;;;;;;;;;;1801351;78;26288;-56
2022/06/13 01:21:21;;;;;;;0.90;0.90;;;;;;;;;;1808216;78;26370;-55
2022/06/13 01:23:55;;;;;;;0.80;0.80;;;;;;;;;;1849925;75;26356;-57
2022/06/13 01:26:27;;;;;;;0.68;0.60;;;;;;;;;;1884814;75;26365;-54
2022/06/13 01:28:58;;;;;;;0.70;0.70;;;;;;;;;;1877254;75;26838;-53
2022/06/13 01:31:27;;;;;;;0.70;0.70;;;;;;;;;;1884679;75;26253;-56
2022/06/13 01:34:05;;;;;;;0.78;0.78;;;;;;;;;;1850596;77;26328;-56
2022/06/13 01:36:34;;;;;;;0.60;0.60;;;;;;;;;;1899968;75;26308;-57
2022/06/13 01:39:06;;;;;;;0.70;0.70;;;;;;;;;;1874992;75;26200;-53
2022/06/13 01:41:35;;;;;;;0.78;0.78;;;;;;;;;;1894622;75;26224;-56
2022/06/13 01:44:12;;;;;;;0.80;0.80;;;;;;;;;;1852915;75;26263;-52
2022/06/13 01:46:41;;;;;;;0.80;0.80;;;;;;;;;;1900845;75;26325;-55
2022/06/13 01:49:19;;;;;;;0.70;0.70;;;;;;;;;;1883511;75;26250;-52
2022/06/13 01:52:03;;;;;;;0.70;0.70;;;;;;;;;;1889040;75;26281;-54
2022/06/13 01:54:34;;;;;;;0.90;0.80;;;;;;;;;;1892405;75;26355;-53
2022/06/13 01:57:18;;;;;;;0.75;0.65;;;;;;;;;;1881471;75;26290;-57
2022/06/13 01:59:50;;;;;;;0.72;0.70;;;;;;;;;;1900763;75;26303;-55
2022/06/13 02:02:31;;;;;;;0.88;0.80;;;;;;;;;;1897972;75;26336;-54
2022/06/13 02:05:03;;;;;;;0.70;0.70;;;;;;;;;;1873037;75;26649;-55
2022/06/13 02:07:32;;;;;;;0.70;0.70;;;;;;;;;;1886456;75;26335;-52
2022/06/13 02:10:03;;;;;;;2.47;0.70;;;;;;;;;;1884876;75;26723;-55
2022/06/13 02:12:32;;;;;;;0.70;0.70;;;;;;;;;;1892712;75;26287;-56
2022/06/13 02:15:04;;;;;;;0.70;0.70;;;;;;;;;;1900384;75;26269;-52
2022/06/13 02:17:32;;;;;;;0.60;0.60;;;;;;;;;;1898118;75;26251;-53
2022/06/13 02:20:07;;;;;;;1.95;0.70;;;;;;;;;;1854272;75;26273;-54
2022/06/13 02:22:45;;;;;;;0.80;0.70;;;;;;;;;;1858743;75;26255;-52
2022/06/13 02:25:23;;;;;;;0.70;0.70;;;;;;;;;;1856921;76;26262;-53
2022/06/13 02:27:52;;;;;;;0.78;0.78;;;;;;;;;;1866496;77;26320;-56
2022/06/13 02:30:20;;;;;;;0.70;0.70;;;;;;;;;;1895296;75;26333;-52
2022/06/13 02:32:49;;;;;;;0.80;0.80;;;;;;;;;;1839278;75;26214;-56
2022/06/13 02:35:23;;;;;;;1.27;0.90;;;;;;;;;;1845771;75;26351;-53
2022/06/13 02:37:52;;;;;;;4.08;0.90;;;;;;;;;;1863909;76;26259;-52
2022/06/13 02:40:27;;;;;;;1.45;0.80;;;;;;;;;;1867948;76;26269;-52
2022/06/13 02:42:56;;;;;;;1.00;0.75;;;;;;;;;;1845487;77;26343;-53
2022/06/13 02:45:24;;;;;;;0.95;0.95;;;;;;;;;;1864247;75;26271;-51
2022/06/13 02:47:53;;;;;;;0.70;0.70;;;;;;;;;;1897512;75;26333;-56
2022/06/13 02:50:22;;;;;;;0.70;0.70;;;;;;;;;;1871583;76;26791;-54
2022/06/13 02:52:51;;;;;;;0.70;0.70;;;;;;;;;;1896172;75;26706;-52
2022/06/13 02:55:18;;;;;;;0.80;0.80;;;;;;;;;;1902568;75;26854;-53
2022/06/13 02:57:56;;;;;;;0.70;0.70;;;;;;;;;;1872526;76;26230;-56
2022/06/13 03:00:40;;;;;;;0.72;0.72;;;;;;;;;;1894403;75;26706;-60
2022/06/13 03:03:15;;;;;;;0.80;0.80;;;;;;;;;;1876062;75;26325;-57
2022/06/13 03:05:53;;;;;;;0.80;0.80;;;;;;;;;;1886976;75;26248;-53
2022/06/13 03:08:22;;;;;;;0.70;0.70;;;;;;;;;;1879296;75;26187;-56
2022/06/13 03:10:50;;;;;;;0.93;0.85;;;;;;;;;;1900020;75;26192;-53
2022/06/13 03:13:19;;;;;;;0.70;0.70;;;;;;;;;;1888678;75;26251;-56
2022/06/13 03:15:48;;;;;;;1.20;0.80;;;;;;;;;;1888617;75;26187;-54
2022/06/13 03:18:17;;;;;;;0.70;0.70;;;;;;;;;;1899561;75;26254;-53
2022/06/13 03:20:51;;;;;;;1.85;0.90;;;;;;;;;;1898887;75;26380;-52
2022/06/13 03:23:20;;;;;;;1.17;0.80;;;;;;;;;;1881742;75;26284;-54
2022/06/13 03:25:55;;;;;;;1.17;1.00;;;;;;;;;;1887492;75;26321;-53
2022/06/13 03:28:42;;;;;;;0.98;0.70;;;;;;;;;;1893356;75;26235;-54
2022/06/13 03:31:11;;;;;;;1.12;0.95;;;;;;;;;;1888512;75;26298;-57
2022/06/13 03:33:43;;;;;;;0.85;0.80;;;;;;;;;;1878758;75;26305;-55
2022/06/13 03:36:12;;;;;;;0.90;0.90;;;;;;;;;;1897539;75;26331;-56
2022/06/13 03:38:40;;;;;;;0.78;0.78;;;;;;;;;;1895061;75;26647;-54
2022/06/13 03:41:09;;;;;;;9.10;0.80;;;;;;;;;;1905551;75;26825;-56
2022/06/13 03:43:44;;;;;;;0.90;0.90;;;;;;;;;;1907574;75;26716;-52
2022/06/13 03:46:19;;;;;;;3.02;1.02;;;;;;;;;;1907602;75;26331;-56
2022/06/13 03:48:48;;;;;;;0.88;0.85;;;;;;;;;;1877252;75;26251;-52
2022/06/13 03:51:17;;;;;;;0.80;0.80;;;;;;;;;;1891007;75;26279;-53
2022/06/13 03:53:48;;;;;;;1.02;0.90;;;;;;;;;;1902831;75;26292;-55
2022/06/13 03:56:17;;;;;;;0.80;0.80;;;;;;;;;;1909705;74;26344;-56
2022/06/13 03:58:46;;;;;;;1.17;0.88;;;;;;;;;;1913736;74;26246;-55
2022/06/13 04:01:15;;;;;;;0.90;0.90;;;;;;;;;;1918518;74;26230;-56
2022/06/13 04:03:42;;;;;;;1.32;0.90;;;;;;;;;;1919053;74;26324;-57
2022/06/13 04:06:28;;;;;;;0.70;0.70;;;;;;;;;;1916021;74;26542;-52
2022/06/13 04:08:55;;;;;;;0.90;0.90;;;;;;;;;;1910273;74;26705;-57
2022/06/13 04:11:30;;;;;;;0.82;0.70;;;;;;;;;;1921799;74;26302;-56
2022/06/13 04:13:59;;;;;;;1.85;0.75;;;;;;;;;;1921507;74;26717;-56
2022/06/13 04:16:28;;;;;;;2.65;0.90;;;;;;;;;;1920941;74;26678;-57
2022/06/13 04:19:03;;;;;;;0.70;0.70;;;;;;;;;;1920795;74;26262;-55
2022/06/13 04:21:37;;;;;;;2.08;0.85;;;;;;;;;;1919226;74;26324;-54
2022/06/13 04:24:09;;;;;;;4.95;1.00;;;;;;;;;;1919420;74;26721;-57
2022/06/13 04:26:38;;;;;;;0.80;0.80;;;;;;;;;;1918471;74;26276;-57
2022/06/13 04:29:13;;;;;;;1.07;0.95;;;;;;;;;;1916238;74;26312;-55
2022/06/13 04:31:41;;;;;;;3.50;0.90;;;;;;;;;;1918563;74;26363;-58
2022/06/13 04:34:12;;;;;;;1.47;1.00;;;;;;;;;;1924747;74;26309;-55
2022/06/13 04:36:40;;;;;;;1.20;0.93;;;;;;;;;;1914355;74;26781;-53
2022/06/13 04:39:09;;;;;;;1.52;0.80;;;;;;;;;;1913263;74;26258;-52
2022/06/13 04:41:37;;;;;;;1.40;1.00;;;;;;;;;;1905349;74;26231;-56
2022/06/13 04:44:06;;;;;;;0.93;0.88;;;;;;;;;;1901107;74;26277;-56
2022/06/13 04:46:34;;;;;;;1.57;0.95;;;;;;;;;;1900366;74;26331;-55
2022/06/13 04:49:05;;;;;;;2.12;1.07;;;;;;;;;;1886393;75;26268;-54
2022/06/13 04:51:33;;;;;;;2.22;0.90;;;;;;;;;;1867179;76;26663;-54
2022/06/13 04:54:02;;;;;;;1.27;0.95;;;;;;;;;;1888479;76;26257;-54
2022/06/13 04:56:30;;;;;;;1.57;1.02;;;;;;;;;;1897530;74;26596;-54
2022/06/13 04:58:58;;;;;;;1.25;1.05;;;;;;;;;;1885717;75;26301;-56
2022/06/13 05:01:30;;;;;;;1.32;0.90;;;;;;;;;;1854857;76;26223;-53
2022/06/13 05:03:59;;;;;;;0.88;0.80;;;;;;;;;;1855849;76;26730;-55
2022/06/13 05:06:34;;;;;;;0.90;0.90;;;;;;;;;;1870624;75;26269;-55
2022/06/13 05:09:03;;;;;;;1.10;1.02;;;;;;;;;;1868232;76;27307;-57
2022/06/13 05:11:35;;;;;;;3.25;1.02;;;;;;;;;;1871725;76;26270;-50
2022/06/13 05:14:04;;;;;;;1.32;0.80;;;;;;;;;;1861932;76;26620;-56
2022/06/13 05:16:39;;;;;;;1.37;1.20;;;;;;;;;;1887926;75;26732;-56
2022/06/13 05:19:08;;;;;;;1.05;0.90;;;;;;;;;;1869323;75;26612;-54
2022/06/13 05:21:39;;;;;;;5.12;0.90;;;;;;;;;;1888586;75;26282;-53
2022/06/13 05:24:11;;;;;;;1.30;0.80;;;;;;;;;;1885781;75;26663;-55
2022/06/13 05:26:38;;;;;;;2.08;1.42;;;;;;;;;;1881715;75;26269;-54
2022/06/13 05:29:07;;;;;;;0.90;0.90;;;;;;;;;;1882645;75;26192;-55
2022/06/13 05:31:34;;;;;;;2.12;1.10;;;;;;;;;;1881618;75;26250;-57
2022/06/13 05:34:02;;;;;;;1.00;1.00;;;;;;;;;;1884274;75;26187;-54
2022/06/13 05:36:29;;;;;;;1.75;1.12;;;;;;;;;;1892009;75;26261;-56
2022/06/13 05:38:58;;;;;;;1.37;0.85;;;;;;;;;;1875445;76;26338;-54
2022/06/13 05:41:26;;;;;;;2.05;1.00;;;;;;;;;;1855692;76;26276;-53
2022/06/13 05:43:53;;;;;;;1.05;1.00;;;;;;;;;;1892049;75;26328;-55
2022/06/13 05:46:25;;;;;;;1.35;1.00;;;;;;;;;;1905069;75;26250;-55
2022/06/13 05:48:53;;;;;;;1.27;0.95;;;;;;;;;;1877983;74;26297;-56
2022/06/13 05:51:20;;;;;;;1.12;0.90;;;;;;;;;;1875376;76;26737;-56
2022/06/13 05:53:47;;;;;;;2.62;1.20;;;;;;;;;;1875332;76;26258;-56
2022/06/13 05:56:15;;;;;;;1.20;1.10;;;;;;;;;;1877306;75;26632;-55
2022/06/13 05:58:42;;;;;;;3.72;1.00;;;;;;;;;;1863723;75;26634;-56
2022/06/13 06:01:13;;;;;;;1.67;1.10;;;;;;;;;;1878330;75;26279;-55
2022/06/13 06:03:39;;;;;;;1.10;0.93;;;;;;;;;;1908896;74;26263;-54
2022/06/13 06:06:07;;;;;;;2.45;1.30;;;;;;;;;;1863638;76;26262;-52
2022/06/13 06:08:36;;;;;;;0.93;0.90;;;;;;;;;;1866026;75;26255;-56
2022/06/13 06:11:04;;;;;;;1.15;1.05;;;;;;;;;;1862036;76;26304;-53
2022/06/13 06:13:31;;;;;;;1.37;1.10;;;;;;;;;;1875339;75;26347;-53
2022/06/13 06:16:00;;;;;;;2.25;1.10;;;;;;;;;;1874055;76;26253;-56
2022/06/13 06:18:29;;;;;;;3.42;1.20;;;;;;;;;;1868807;76;26210;-56
2022/06/13 06:20:57;;;;;;;1.45;1.10;;;;;;;;;;1871689;76;26210;-56
2022/06/13 06:23:24;;;;;;;3.45;1.25;;;;;;;;;;1902320;75;26519;-56
2022/06/13 06:25:51;;;;;;;0.90;0.90;;;;;;;;;;1905658;75;26513;-56
2022/06/13 06:28:20;;;;;;;1.02;1.02;;;;;;;;;;1882813;75;26236;-54
2022/06/13 06:30:48;;;;;;;1.60;1.02;;;;;;;;;;1900005;75;26194;-55
2022/06/13 06:33:15;;;;;;;1.45;1.00;;;;;;;;;;1862938;76;26597;-54
2022/06/13 06:35:43;;;;;;;1.67;1.10;;;;;;;;;;1865103;76;26205;-56
2022/06/13 06:38:10;;;;;;;2.25;1.07;;;;;;;;;;1875269;75;26243;-55
2022/06/13 06:40:38;;;;;;;1.25;1.15;;;;;;;;;;1888935;75;26807;-52
2022/06/13 06:43:06;;;;;;;1.37;1.22;;;;;;;;;;1884770;75;26281;-53
2022/06/13 06:45:33;;;;;;;1.17;1.00;;;;;;;;;;1852326;77;26269;-56
2022/06/13 06:48:01;;;;;;;1.00;1.00;;;;;;;;;;1895492;75;26207;-53
2022/06/13 06:50:30;;;;;;;1.40;1.02;;;;;;;;;;1877807;75;26242;-53
2022/06/13 06:52:57;;;;;;;1.20;1.10;;;;;;;;;;1875246;76;26274;-57
2022/06/13 07:00:58;;;;;;;1.02;1.00;;;;;;;;;;1895893;75;26333;-57
2022/06/13 07:03:25;;;;;;;1.67;1.00;;;;;;;;;;1881364;75;26258;-57
2022/06/13 07:05:53;;;;;;;1.60;1.10;;;;;;;;;;1854329;77;26239;-58
2022/06/13 07:08:21;;;;;;;1.15;1.00;;;;;;;;;;1904530;75;26332;-58
2022/06/13 07:10:49;;;;;;;1.35;1.25;;;;;;;;;;1840944;77;26388;-58
2022/06/13 07:13:18;;;;;;;1.32;1.00;;;;;;;;;;1863674;76;26347;-57
2022/06/13 07:15:48;;;;;;;1.20;1.10;;;;;;;;;;1887198;75;26259;-57
2022/06/13 07:18:14;;;;;;;2.30;1.10;;;;;;;;;;1885085;75;26435;-57
2022/06/13 07:20:42;;;;;;;1.60;1.00;;;;;;;;;;1845145;77;26668;-57
2022/06/13 07:23:09;;;;;;;1.10;1.10;;;;;;;;;;1882675;75;26262;-56
2022/06/13 07:25:36;;;;;;;1.42;1.10;;;;;;;;;;1852149;77;26281;-55
2022/06/13 07:28:04;;;;;;;1.07;1.02;;;;;;;;;;1878681;75;26269;-56
2022/06/13 07:30:32;;;;;;;1.20;1.10;;;;;;;;;;1889317;75;26223;-57
2022/06/13 07:32:59;;;;;;;0.95;0.95;;;;;;;;;;1859746;75;26674;-51
2022/06/13 07:35:27;;;;;;;0.90;0.90;;;;;;;;;;1878161;75;26245;-57
2022/06/13 07:40:41;;;;;;;0.90;0.90;;;;;;;;;;1877184;75;26364;-56
2022/06/13 07:43:11;;;;;;;0.80;0.80;;;;;;;;;;1901135;75;26681;-54
2022/06/13 07:45:39;;;;;;;1.05;0.90;;;;;;;;;;1874124;75;26724;-56
2022/06/13 07:48:07;;;;;;;1.62;1.00;;;;;;;;;;1870083;76;26297;-55
2022/06/13 07:50:35;;;;;;;1.40;1.07;;;;;;;;;;1868582;77;26274;-55
2022/06/13 07:53:02;;;;;;;2.35;1.02;;;;;;;;;;1877360;75;26715;-53
2022/06/13 07:55:31;;;;;;;0.98;0.95;;;;;;;;;;1874989;75;26761;-54
2022/06/13 07:58:00;;;;;;;1.25;1.10;;;;;;;;;;1890795;75;26356;-57
2022/06/13 08:00:28;;;;;;;1.27;1.17;;;;;;;;;;1891378;75;26396;-56
2022/06/13 08:02:56;;;;;;;0.90;0.90;;;;;;;;;;1890306;75;26317;-56
2022/06/13 08:05:23;;;;;;;1.05;0.95;;;;;;;;;;1897562;75;26303;-55
2022/06/13 08:07:50;;;;;;;0.90;0.90;;;;;;;;;;1850802;77;26638;-58
2022/06/13 08:10:19;;;;;;;0.80;0.80;;;;;;;;;;1887396;75;26250;-54
2022/06/13 08:12:46;;;;;;;2.30;1.12;;;;;;;;;;1885909;75;26661;-58
2022/06/13 08:15:14;;;;;;;1.65;0.90;;;;;;;;;;1886153;75;26243;-55
2022/06/13 08:17:41;;;;;;;0.78;0.78;;;;;;;;;;1900734;75;26692;-57
2022/06/13 08:20:10;;;;;;;0.95;0.90;;;;;;;;;;1897194;75;26343;-52
2022/06/13 08:22:41;;;;;;;0.98;0.98;;;;;;;;;;1904789;75;26730;-53
2022/06/13 08:25:11;;;;;;;0.70;0.70;;;;;;;;;;1848596;77;26582;-54
2022/06/13 08:27:38;;;;;;;1.10;1.00;;;;;;;;;;1890700;75;26314;-52
2022/06/13 08:30:06;;;;;;;0.90;0.90;;;;;;;;;;1851541;77;26285;-53
2022/06/13 08:32:33;;;;;;;0.80;0.80;;;;;;;;;;1877581;75;26863;-57
2022/06/13 08:35:01;;;;;;;1.77;0.90;;;;;;;;;;1891675;75;26735;-52
2022/06/13 08:37:28;;;;;;;1.00;1.00;;;;;;;;;;1869486;75;26705;-54
2022/06/13 08:39:55;;;;;;;1.37;1.05;;;;;;;;;;1872701;75;26666;-55
2022/06/13 08:42:27;;;;;;;0.85;0.85;;;;;;;;;;1888470;75;26243;-56
2022/06/13 08:45:01;;;;;;;0.80;0.80;;;;;;;;;;1891723;75;26255;-54
2022/06/13 08:47:43;;;;;;;1.60;1.10;;;;;;;;;;1877074;75;26199;-51
2022/06/13 08:50:17;;;;;;;2.40;1.20;;;;;;;;;;1896874;75;26326;-54
2022/06/13 08:52:52;;;;;;;1.85;0.90;;;;;;;;;;1886037;75;26247;-54
2022/06/13 08:55:21;;;;;;;1.02;1.00;;;;;;;;;;1895810;75;26243;-54
2022/06/13 08:57:53;;;;;;;1.17;1.07;;;;;;;;;;1871259;75;26279;-51
2022/06/13 09:00:25;;;;;;;1.00;0.90;;;;;;;;;;1874282;75;26247;-54
2022/06/13 09:02:52;;;;;;;1.00;0.90;;;;;;;;;;1772366;76;26285;-53
2022/06/13 09:05:33;;;;;;;0.80;0.80;;;;;;;;;;1776007;80;26313;-54
2022/06/13 09:08:15;;;;;;;0.93;0.93;;;;;;;;;;1758542;80;26745;-54
2022/06/13 09:10:44;;;;;;;1.32;1.00;;;;;;;;;;1746122;80;26364;-52
2022/06/13 09:13:19;;;;;;;1.40;1.05;;;;;;;;;;1741717;81;26354;-56
2022/06/13 09:15:48;;;;;;;1.10;1.10;;;;;;;;;;1739991;79;26734;-56
2022/06/13 09:18:16;;;;;;;1.52;1.10;;;;;;;;;;1769844;79;27076;-53
2022/06/13 09:21:02;;;;;;;1.00;1.00;;;;;;;;;;1751916;81;26389;-54
2022/06/13 09:23:34;;;;;;;1.07;1.00;;;;;;;;;;1756183;81;26346;-53
2022/06/13 09:26:15;;;;;;;0.90;0.90;;;;;;;;;;1767501;79;26277;-56
2022/06/13 09:28:44;;;;;;;1.20;0.90;;;;;;;;;;1759863;80;26370;-54
2022/06/13 09:31:13;;;;;;;1.95;1.00;;;;;;;;;;1747905;80;26323;-53
2022/06/13 09:33:42;;;;;;;0.80;0.80;;;;;;;;;;1733550;81;26783;-56
2022/06/13 09:36:16;;;;;;;0.93;0.90;;;;;;;;;;1765121;81;26792;-55
2022/06/13 09:38:45;;;;;;;1.05;0.85;;;;;;;;;;1763502;79;26316;-57
2022/06/13 09:41:17;;;;;;;1.37;1.10;;;;;;;;;;1751819;80;26276;-53
2022/06/13 09:43:54;;;;;;;0.80;0.80;;;;;;;;;;1768244;81;26391;-57
2022/06/13 09:46:32;;;;;;;2.22;1.00;;;;;;;;;;1756013;80;26291;-55
2022/06/13 09:49:07;;;;;;;0.88;0.80;;;;;;;;;;1770158;79;26304;-55
2022/06/13 09:51:41;;;;;;;1.07;0.82;;;;;;;;;;1775378;80;26372;-56
2022/06/13 09:54:10;;;;;;;0.80;0.80;;;;;;;;;;1775542;80;26304;-52
2022/06/13 09:56:39;;;;;;;1.02;1.02;;;;;;;;;;1733413;81;26271;-54
2022/06/13 09:59:10;;;;;;;0.95;0.95;;;;;;;;;;1770148;79;26300;-55
2022/06/13 10:01:46;;;;;;;0.90;0.90;;;;;;;;;;1743244;81;26503;-58
2022/06/13 10:04:15;;;;;;;1.10;0.90;;;;;;;;;;1740240;81;26394;-54
2022/06/13 10:06:49;;;;;;;1.00;1.00;;;;;;;;;;1767930;79;26413;-55
2022/06/13 10:09:33;;;;;;;0.80;0.80;;;;;;;;;;1770022;79;26287;-54
2022/06/13 10:12:06;;;;;;;1.00;0.90;;;;;;;;;;1765225;80;26405;-57
2022/06/13 10:14:32;;;;;;;0.80;0.80;;;;;;;;;;1767566;81;26247;-55
2022/06/13 10:17:10;;;;;;;0.90;0.90;;;;;;;;;;1759082;80;26690;-57
2022/06/13 10:19:39;;;;;;;2.37;0.90;;;;;;;;;;1764268;79;26387;-57
2022/06/13 10:22:08;;;;;;;0.90;0.90;;;;;;;;;;1802601;78;26378;-56
2022/06/13 10:24:39;;;;;;;1.60;0.95;;;;;;;;;;1810072;78;26278;-53
2022/06/13 10:27:08;;;;;;;0.90;0.90;;;;;;;;;;1802478;78;26273;-52
2022/06/13 10:29:39;;;;;;;0.80;0.80;;;;;;;;;;1748984;79;26294;-55
2022/06/13 10:32:25;;;;;;;0.82;0.80;;;;;;;;;;1801695;78;26231;-55
2022/06/13 10:34:53;;;;;;;0.80;0.80;;;;;;;;;;1817863;78;26363;-53
2022/06/13 10:37:28;;;;;;;0.90;0.90;;;;;;;;;;1801578;78;26548;-55
2022/06/13 10:39:57;;;;;;;0.80;0.80;;;;;;;;;;1801630;79;26670;-55
2022/06/13 10:42:25;;;;;;;1.27;1.00;;;;;;;;;;1803851;78;26669;-57
2022/06/13 10:44:53;;;;;;;0.88;0.88;;;;;;;;;;1815864;78;26359;-54
2022/06/13 10:47:31;;;;;;;0.90;0.90;;;;;;;;;;1802759;78;26768;-57
2022/06/13 10:50:01;;;;;;;1.30;1.20;;;;;;;;;;1815560;78;26360;-57
2022/06/13 10:52:30;;;;;;;1.00;1.00;;;;;;;;;;1809986;78;26733;-55
2022/06/13 10:54:59;;;;;;;0.88;0.88;;;;;;;;;;1805347;78;26234;-58
2022/06/13 10:57:28;;;;;;;1.10;1.00;;;;;;;;;;1803390;78;26357;-51
2022/06/13 11:00:09;;;;;;;0.90;0.90;;;;;;;;;;1793622;78;26364;-56
2022/06/13 11:02:36;;;;;;;0.80;0.80;;;;;;;;;;1800961;78;26337;-52
2022/06/13 11:05:08;;;;;;;0.80;0.80;;;;;;;;;;1812731;78;26650;-56
2022/06/13 11:07:37;;;;;;;0.90;0.90;;;;;;;;;;1806492;78;26756;-56
2022/06/13 11:10:05;;;;;;;0.90;0.90;;;;;;;;;;1818819;78;26685;-55
2022/06/13 11:12:34;;;;;;;0.80;0.80;;;;;;;;;;1806551;78;26508;-49
2022/06/13 11:23:21;;;;;;;1.20;0.90;;;;;;;;;;1805877;78;26859;-56
2022/06/13 11:25:56;;;;;;;0.70;0.70;;;;;;;;;;1805497;78;26351;-57
2022/06/13 11:28:27;;;;;;;0.80;0.80;;;;;;;;;;1806028;78;26278;-52
2022/06/13 11:30:54;;;;;;;0.88;0.88;;;;;;;;;;1788074;79;27378;-57
2022/06/13 11:33:26;;;;;;;0.80;0.80;;;;;;;;;;1796879;78;26789;-56
2022/06/13 11:35:58;;;;;;;0.82;0.75;;;;;;;;;;1803814;78;26226;-56
2022/06/13 11:38:30;;;;;;;0.90;0.90;;;;;;;;;;1822000;78;26376;-57
2022/06/13 11:40:59;;;;;;;0.80;0.80;;;;;;;;;;1811784;78;26265;-53
2022/06/13 11:43:34;;;;;;;0.80;0.80;;;;;;;;;;1815159;78;26269;-56
2022/06/13 11:46:02;;;;;;;0.80;0.80;;;;;;;;;;1802682;78;26914;-57
2022/06/13 11:48:30;;;;;;;1.20;1.00;;;;;;;;;;1804410;78;26720;-54
2022/06/13 11:50:59;;;;;;;0.90;0.90;;;;;;;;;;1808994;78;26269;-58
2022/06/13 11:53:36;;;;;;;0.85;0.80;;;;;;;;;;1805383;78;26286;-52
2022/06/13 11:56:04;;;;;;;1.00;1.00;;;;;;;;;;1804767;78;26845;-57
2022/06/13 11:58:33;;;;;;;0.80;0.80;;;;;;;;;;1815661;78;26709;-55
2022/06/13 12:01:04;;;;;;;0.90;0.90;;;;;;;;;;1804921;78;26297;-57
2022/06/13 12:03:34;;;;;;;0.80;0.80;;;;;;;;;;1794431;78;26360;-56
2022/06/13 12:06:02;;;;;;;1.07;0.80;;;;;;;;;;1803888;78;26864;-56
2022/06/13 12:08:30;;;;;;;0.90;0.90;;;;;;;;;;1812962;78;26760;-52
2022/06/13 12:10:59;;;;;;;0.90;0.90;;;;;;;;;;1803027;78;26331;-57
2022/06/13 12:13:27;;;;;;;1.85;0.90;;;;;;;;;;1809999;78;26355;-56
2022/06/13 12:15:58;;;;;;;0.80;0.80;;;;;;;;;;1802578;78;26282;-58
2022/06/13 12:18:39;;;;;;;0.78;0.78;;;;;;;;;;1801910;78;26615;-56
2022/06/13 12:21:26;;;;;;;0.80;0.80;;;;;;;;;;1802911;78;26226;-54
2022/06/13 12:23:58;;;;;;;2.10;0.90;;;;;;;;;;1811923;78;26359;-52
2022/06/13 12:26:30;;;;;;;0.80;0.80;;;;;;;;;;1793462;78;26658;-55
2022/06/13 12:29:14;;;;;;;1.12;0.93;;;;;;;;;;1802177;78;26285;-54
2022/06/13 12:31:43;;;;;;;0.80;0.80;;;;;;;;;;1808002;78;26355;-57
2022/06/13 12:34:27;;;;;;;0.90;0.90;;;;;;;;;;1805912;78;26293;-57
2022/06/13 12:37:01;;;;;;;0.70;0.70;;;;;;;;;;1802767;78;26257;-54
2022/06/13 12:39:39;;;;;;;0.93;0.90;;;;;;;;;;1801219;78;26340;-53
2022/06/13 12:42:24;;;;;;;2.27;1.02;;;;;;;;;;1801475;78;26324;-55
2022/06/13 12:44:59;;;;;;;1.00;1.00;;;;;;;;;;1816944;78;26235;-55
2022/06/13 12:47:31;;;;;;;0.75;0.75;;;;;;;;;;1802790;78;26344;-57
2022/06/13 12:50:03;;;;;;;1.00;1.00;;;;;;;;;;1803025;78;26335;-55
2022/06/13 12:52:35;;;;;;;1.47;0.70;;;;;;;;;;1793551;79;26721;-55
2022/06/13 12:55:21;;;;;;;0.70;0.70;;;;;;;;;;1780136;78;26293;-54
2022/06/13 12:57:49;;;;;;;0.90;0.90;;;;;;;;;;1803416;78;26245;-54
2022/06/13 13:00:24;;;;;;;0.80;0.80;;;;;;;;;;1802518;78;26355;-55
2022/06/13 13:02:59;;;;;;;0.70;0.70;;;;;;;;;;1811333;78;26285;-54
2022/06/13 13:05:31;;;;;;;0.80;0.80;;;;;;;;;;1802324;78;26791;-55
2022/06/13 13:08:15;;;;;;;1.17;0.82;;;;;;;;;;1810311;78;26249;-56
2022/06/13 13:10:44;;;;;;;0.80;0.80;;;;;;;;;;1804986;78;26732;-56
2022/06/13 13:13:28;;;;;;;0.70;0.70;;;;;;;;;;1806228;78;27221;-57
2022/06/13 13:15:59;;;;;;;1.05;0.90;;;;;;;;;;1807156;78;26281;-56
2022/06/13 13:18:28;;;;;;;0.65;0.65;;;;;;;;;;1804456;78;26347;-56
2022/06/13 13:21:03;;;;;;;0.82;0.70;;;;;;;;;;1811054;78;26339;-55
2022/06/13 13:23:37;;;;;;;0.82;0.82;;;;;;;;;;1787750;78;26646;-55
2022/06/13 13:26:06;;;;;;;0.80;0.80;;;;;;;;;;1803068;78;26779;-57
2022/06/13 13:28:37;;;;;;;0.80;0.80;;;;;;;;;;1803243;79;26733;-55
2022/06/13 13:31:09;;;;;;;0.82;0.82;;;;;;;;;;1807236;78;26384;-57
2022/06/13 13:33:41;;;;;;;0.88;0.88;;;;;;;;;;1802571;78;26278;-57
2022/06/13 13:36:10;;;;;;;0.70;0.70;;;;;;;;;;1804366;78;26332;-57
2022/06/13 13:38:39;;;;;;;0.70;0.70;;;;;;;;;;1803768;78;26370;-56
2022/06/13 13:41:09;;;;;;;1.65;0.85;;;;;;;;;;1803065;78;26230;-55
2022/06/13 13:43:37;;;;;;;1.22;0.90;;;;;;;;;;1800738;78;25325;-57
2022/06/13 13:46:09;;;;;;;0.70;0.70;;;;;;;;;;1819139;78;26571;-55
2022/06/13 13:48:41;;;;;;;0.62;0.62;;;;;;;;;;1803015;78;26331;-57
2022/06/13 13:51:12;;;;;;;0.70;0.70;;;;;;;;;;1802397;78;26364;-58
2022/06/13 13:53:41;;;;;;;1.27;0.80;;;;;;;;;;1802958;78;26292;-56
2022/06/13 13:56:12;;;;;;;0.62;0.62;;;;;;;;;;1800213;79;26329;-52
2022/06/13 13:58:40;;;;;;;0.60;0.60;;;;;;;;;;1801875;78;26725;-57
2022/06/13 14:01:15;;;;;;;0.70;0.70;;;;;;;;;;1802586;78;26214;-57
2022/06/13 14:03:46;;;;;;;0.70;0.70;;;;;;;;;;1822518;77;26352;-57
2022/06/13 14:06:15;;;;;;;1.95;0.60;;;;;;;;;;1811293;78;26293;-58
2022/06/13 14:08:44;;;;;;;0.88;0.80;;;;;;;;;;1803734;78;26238;-56
2022/06/13 14:11:12;;;;;;;0.70;0.70;;;;;;;;;;1834799;77;26375;-56
2022/06/13 14:13:41;;;;;;;0.70;0.70;;;;;;;;;;1791729;78;26257;-58
2022/06/13 14:16:13;;;;;;;0.57;0.57;;;;;;;;;;1800566;78;26557;-55
2022/06/13 14:18:48;;;;;;;0.70;0.70;;;;;;;;;;1801580;78;26250;-54
2022/06/13 14:21:16;;;;;;;0.60;0.60;;;;;;;;;;1796934;78;26308;-56
2022/06/13 14:23:48;;;;;;;1.85;0.70;;;;;;;;;;1802562;78;26301;-55
2022/06/13 14:26:20;;;;;;;0.78;0.78;;;;;;;;;;1802568;78;26347;-54
2022/06/13 14:28:49;;;;;;;0.70;0.70;;;;;;;;;;1803268;78;26304;-55
2022/06/13 14:31:17;;;;;;;0.70;0.70;;;;;;;;;;1795872;78;26283;-57
2022/06/13 14:36:42;;;;;;;0.80;0.80;;;;;;;;;;1803776;78;26790;-55
2022/06/13 14:39:09;;;;;;;0.68;0.68;;;;;;;;;;1790052;78;26743;-57
2022/06/13 14:41:38;;;;;;;0.60;0.60;;;;;;;;;;1810881;78;26296;-56
2022/06/13 14:44:10;;;;;;;0.70;0.70;;;;;;;;;;1805463;78;26309;-57
2022/06/13 14:46:38;;;;;;;0.50;0.50;;;;;;;;;;1803817;78;26277;-56
2022/06/13 14:49:16;;;;;;;1.00;0.70;;;;;;;;;;1805255;78;26344;-54
2022/06/13 14:52:02;;;;;;;0.68;0.68;;;;;;;;;;1818970;78;26360;-55
2022/06/13 14:54:33;;;;;;;1.00;0.65;;;;;;;;;;1803678;78;26734;-55
2022/06/13 14:57:00;;;;;;;0.70;0.70;;;;;;;;;;1818005;78;26705;-58
2022/06/13 14:59:28;;;;;;;1.45;0.57;;;;;;;;;;1807677;78;26273;-57
2022/06/13 15:02:12;;;;;;;0.60;0.60;;;;;;;;;;1814108;78;26293;-56
2022/06/13 15:04:39;;;;;;;0.70;0.70;;;;;;;;;;1804754;78;26790;-56
2022/06/13 15:07:09;;;;;;;0.50;0.50;;;;;;;;;;1803875;78;26721;-54
2022/06/13 15:09:50;;;;;;;0.68;0.60;;;;;;;;;;1803218;78;26332;-58
2022/06/13 15:12:19;;;;;;;0.70;0.70;;;;;;;;;;1813567;78;26325;-57
2022/06/13 15:14:48;;;;;;;0.65;0.55;;;;;;;;;;1806771;78;26800;-55
2022/06/13 15:17:16;;;;;;;0.60;0.60;;;;;;;;;;1796232;78;26831;-56
2022/06/13 15:19:44;;;;;;;0.50;0.50;;;;;;;;;;1799429;78;26293;-56
2022/06/13 15:22:16;;;;;;;0.62;0.62;;;;;;;;;;1799364;78;26341;-55
2022/06/13 15:24:45;;;;;;;0.72;0.70;;;;;;;;;;1797598;78;26819;-56
2022/06/13 15:27:12;;;;;;;0.80;0.80;;;;;;;;;;1798006;78;26720;-57